To NAV CANADA Home Page Login to a new session Search on AWWS site Disclaimer Vers la page française équivalente Tips FAQ What's new on the site To the Forecasts and Observations / NOTAM section To "File a Flight Plan" website Publications and other links Update of the User's profile FIC Telephone Numbers My Weather Data Folder Route Weather Data Regional Weather Data Local Weather Data To the Forecasts and Observations / NOTAM section
Request Generated 03/19/2019 at 23:25:14 UTC . Weather information available at that time is displayed.

METAR/TAF

GJOA HAVEN/NU    (show WxCam)

METAR CYHK 192300Z 19006KT 15SM BKN250 M28/M30 A3006 RMK CI6 SLP191=
METAR CYHK 192200Z 21005KT 15SM SKC M27/M30 A3009 RMK SLP200=
METAR CYHK 192100Z 19004KT 15SM BKN250 M26/M29 A3011 RMK CI6 SLP207=

TAF CYHK 191742Z 1918/2006 VRB03KT P6SM SCT220
BECMG 2000/2002 19008KT
FM200400 17012KT P6SM OVC120
RMK NXT FCST BY 200000Z=
Your time UTC time
Weather data provided by Environment Canada and NAV CANADA